Time;durP1;ratioP1;P1;durP2;ratioP2;P2;SDS_P1;SDS_P2;PMS_P1;PMS_P2;Temp;Humidity;BMP_temperature;BMP_pressure;BME280_temperature;BME280_humidity;BME280_pressure;Samples;Min_cycle;Max_cycle;Signal;HPM_P1;HPM_P2
2023/12/07 00:00:50;;;;;;;13.10;6.05;;;;;;;4.79;70.25;100707.88;10297392;28;20049;-56
2023/12/07 00:05:52;;;;;;;13.07;6.10;;;;;;;4.68;70.71;100706.13;10298162;28;24979;-57
2023/12/07 00:10:53;;;;;;;13.40;7.00;;;;;;;4.72;70.19;100704.03;10298349;28;20562;-57
2023/12/07 00:15:55;;;;;;;12.55;6.25;;;;;;;4.72;70.77;100712.03;10296702;28;20042;-58
2023/12/07 00:20:56;;;;;;;11.32;6.05;;;;;;;4.74;71.35;100720.75;10297392;28;20161;-58
2023/12/07 00:25:58;;;;;;;13.27;6.53;;;;;;;4.79;70.96;100726.53;10298844;28;20045;-58
2023/12/07 00:30:59;;;;;;;10.90;5.90;;;;;;;4.76;71.69;100729.47;10296317;28;20056;-58
2023/12/07 00:36:00;;;;;;;16.50;6.55;;;;;;;4.91;71.91;100729.97;10302461;28;20129;-57
2023/12/07 00:41:02;;;;;;;13.80;5.75;;;;;;;4.94;71.77;100717.25;10297243;28;20042;-56
2023/12/07 00:46:07;;;;;;;12.52;6.07;;;;;;;5.09;71.62;100736.38;10297703;28;20055;-57
2023/12/07 00:51:09;;;;;;;9.38;5.63;;;;;;;5.17;70.74;100733.06;10268282;28;20105;-57
2023/12/07 00:56:11;;;;;;;11.65;6.75;;;;;;;5.15;71.19;100730.56;10294497;28;20053;-58
2023/12/07 01:01:12;;;;;;;11.45;5.28;;;;;;;5.10;70.59;100726.59;10292306;28;20039;-57
2023/12/07 01:06:16;;;;;;;13.45;6.45;;;;;;;5.03;71.15;100736.06;10298234;28;20137;-55
2023/12/07 01:11:18;;;;;;;13.50;6.63;;;;;;;4.93;71.15;100749.31;10292482;28;20049;-57
2023/12/07 01:16:19;;;;;;;13.07;6.40;;;;;;;4.89;71.44;100746.06;10296307;28;20043;-58
2023/12/07 01:21:21;;;;;;;14.30;6.65;;;;;;;4.73;71.50;100754.50;10295138;28;20105;-56
2023/12/07 01:26:22;;;;;;;13.02;6.47;;;;;;;4.76;72.04;100758.75;10294318;28;20085;-56
2023/12/07 01:31:24;;;;;;;15.25;6.40;;;;;;;4.78;70.95;100770.13;10290210;28;20082;-57
2023/12/07 01:36:25;;;;;;;14.32;7.07;;;;;;;4.70;70.83;100772.56;10279978;28;20082;-56
2023/12/07 01:41:27;;;;;;;13.18;6.05;;;;;;;4.60;71.43;100782.28;10297104;28;20046;-56
2023/12/07 01:46:28;;;;;;;13.77;6.63;;;;;;;4.43;71.48;100770.38;10298062;28;20046;-56
2023/12/07 01:51:31;;;;;;;14.88;6.80;;;;;;;4.29;71.19;100774.16;10297550;28;20497;-56
2023/12/07 01:56:32;;;;;;;16.83;6.82;;;;;;;4.18;71.37;100785.66;10282273;28;20058;-58
2023/12/07 02:01:34;;;;;;;11.40;6.72;;;;;;;4.01;71.66;100786.16;10294842;28;20524;-57
2023/12/07 02:06:35;;;;;;;18.67;7.20;;;;;;;3.85;71.41;100789.22;10293220;28;20134;-56
2023/12/07 02:11:37;;;;;;;14.65;8.05;;;;;;;3.70;71.53;100793.94;10294604;28;20078;-56
2023/12/07 02:17:28;;;;;;;12.63;6.13;;;;;;;3.55;71.64;100794.19;10295484;28;20058;-58
2023/12/07 02:22:49;;;;;;;16.23;7.20;;;;;;;3.38;71.73;100789.31;10262452;28;20105;-57
2023/12/07 02:27:51;;;;;;;14.70;7.32;;;;;;;3.29;71.68;100795.34;10297777;28;20047;-58
2023/12/07 02:32:52;;;;;;;16.33;7.05;;;;;;;3.20;72.00;100791.59;10290575;28;20062;-58
2023/12/07 02:37:54;;;;;;;13.65;6.45;;;;;;;3.12;71.99;100796.63;10301240;28;20139;-58
2023/12/07 02:42:57;;;;;;;13.05;6.00;;;;;;;3.06;72.00;100794.44;10300228;28;20136;-58
2023/12/07 02:47:58;;;;;;;15.60;7.07;;;;;;;2.94;72.17;100806.81;10305984;28;20053;-58
2023/12/07 02:53:00;;;;;;;13.20;7.32;;;;;;;2.84;71.84;100796.03;10300155;28;20049;-58
2023/12/07 02:58:01;;;;;;;14.63;6.40;;;;;;;2.76;71.82;100801.09;10299282;28;20057;-57
2023/12/07 03:03:03;;;;;;;12.88;6.57;;;;;;;2.68;72.22;100809.63;10302093;28;20944;-57
2023/12/07 03:08:05;;;;;;;16.90;6.63;;;;;;;2.60;71.82;100808.50;10297488;28;20129;-58
2023/12/07 03:13:06;;;;;;;16.25;6.55;;;;;;;2.49;72.43;100810.16;10300706;28;20046;-58
2023/12/07 03:18:08;;;;;;;22.13;8.23;;;;;;;2.39;72.24;100822.41;10298064;28;20501;-58
2023/12/07 03:23:09;;;;;;;15.43;7.65;;;;;;;2.41;72.86;100809.00;10295294;28;20046;-56
2023/12/07 03:28:11;;;;;;;17.52;7.47;;;;;;;2.48;72.50;100811.09;10295121;28;20042;-56
2023/12/07 03:33:12;;;;;;;16.42;7.57;;;;;;;2.48;72.73;100810.25;10296366;28;20046;-56
2023/12/07 03:38:15;;;;;;;13.68;6.78;;;;;;;2.51;72.33;100818.00;10301377;28;20058;-56
2023/12/07 03:43:19;;;;;;;16.23;6.97;;;;;;;2.48;72.39;100812.91;10297774;28;20438;-56
2023/12/07 03:48:20;;;;;;;14.52;6.93;;;;;;;2.43;72.47;100818.56;10294421;28;20109;-55
2023/12/07 03:53:22;;;;;;;17.00;7.07;;;;;;;2.38;72.63;100815.38;10299692;28;20061;-58
2023/12/07 03:58:23;;;;;;;21.33;7.30;;;;;;;2.44;72.50;100830.84;10299633;28;20073;-56
2023/12/07 04:03:25;;;;;;;20.77;7.53;;;;;;;2.38;72.48;100826.81;10294561;28;20042;-56
2023/12/07 04:08:26;;;;;;;19.77;8.20;;;;;;;2.38;73.05;100841.91;10300773;28;20415;-58
2023/12/07 04:13:28;;;;;;;22.38;7.68;;;;;;;2.38;73.07;100840.09;10298729;28;20378;-56
2023/12/07 04:18:29;;;;;;;18.38;7.32;;;;;;;2.38;72.75;100836.59;10295588;28;20078;-56
2023/12/07 04:23:31;;;;;;;22.52;7.03;;;;;;;2.30;72.89;100838.97;10296421;28;20054;-56
2023/12/07 04:28:32;;;;;;;17.05;7.53;;;;;;;2.25;73.09;100841.97;10297600;28;20474;-56
2023/12/07 04:33:34;;;;;;;19.05;7.10;;;;;;;2.19;73.16;100847.69;10294605;28;20051;-57
2023/12/07 04:38:35;;;;;;;15.75;7.47;;;;;;;2.26;73.41;100840.16;10294271;28;20112;-58
2023/12/07 04:43:37;;;;;;;16.33;7.78;;;;;;;2.29;73.14;100846.09;10296601;28;20045;-58
2023/12/07 04:48:38;;;;;;;15.95;7.40;;;;;;;2.33;73.15;100844.91;10295817;28;20710;-58
2023/12/07 04:53:40;;;;;;;16.30;7.20;;;;;;;2.35;73.06;100864.22;10297931;28;20066;-57
2023/12/07 04:58:41;;;;;;;24.83;8.70;;;;;;;2.38;73.68;100863.13;10294956;28;20046;-57
2023/12/07 05:03:43;;;;;;;25.23;8.18;;;;;;;2.46;73.76;100857.28;10298286;28;20126;-58
2023/12/07 05:08:44;;;;;;;18.63;7.30;;;;;;;2.49;73.48;100865.00;10299443;28;20046;-57
2023/12/07 05:13:47;;;;;;;19.65;7.63;;;;;;;2.46;73.27;100862.56;10296245;28;20509;-58
2023/12/07 05:18:49;;;;;;;18.25;7.47;;;;;;;2.44;73.30;100861.84;10301869;28;20046;-58
2023/12/07 05:23:50;;;;;;;18.85;7.40;;;;;;;2.37;73.07;100859.63;10295049;28;20042;-57
2023/12/07 05:28:52;;;;;;;16.95;6.95;;;;;;;2.25;73.70;100867.59;10292709;28;20058;-57
2023/12/07 05:33:53;;;;;;;21.52;8.45;;;;;;;2.21;73.11;100869.63;10297375;28;20053;-57
2023/12/07 05:38:55;;;;;;;18.70;8.32;;;;;;;2.14;73.55;100871.88;10289062;28;20050;-58
2023/12/07 05:43:56;;;;;;;15.98;7.68;;;;;;;2.09;73.74;100871.34;10292341;28;20121;-56
2023/12/07 05:48:58;;;;;;;25.95;7.72;;;;;;;2.06;73.46;100874.22;10292641;28;20049;-56
2023/12/07 05:54:00;;;;;;;18.70;7.35;;;;;;;2.00;73.24;100863.22;10293048;28;20042;-57
2023/12/07 05:59:01;;;;;;;17.00;6.95;;;;;;;1.96;72.98;100870.53;10294512;28;20049;-56
2023/12/07 06:04:02;;;;;;;20.40;7.75;;;;;;;1.76;74.04;100872.78;10294535;28;20057;-56
2023/12/07 06:09:07;;;;;;;21.33;8.70;;;;;;;1.78;73.58;100881.47;10294361;28;20051;-58
2023/12/07 06:14:09;;;;;;;21.92;8.88;;;;;;;1.68;73.79;100879.53;10300031;28;20057;-57
2023/12/07 06:19:10;;;;;;;21.98;8.27;;;;;;;1.64;74.30;100878.91;10300181;28;20053;-56
2023/12/07 06:24:14;;;;;;;19.83;7.75;;;;;;;1.60;74.45;100885.38;10295863;28;20070;-56
2023/12/07 06:29:15;;;;;;;24.75;8.73;;;;;;;1.63;74.76;100886.97;10299756;28;20046;-58
2023/12/07 06:34:17;;;;;;;22.17;7.45;;;;;;;1.73;74.27;100880.91;10300824;28;20081;-57
2023/12/07 06:39:18;;;;;;;19.17;7.20;;;;;;;1.69;74.23;100894.50;10300936;28;20050;-56
2023/12/07 06:44:20;;;;;;;19.05;8.73;;;;;;;1.63;74.16;100903.72;10302433;28;20065;-57
2023/12/07 06:49:21;;;;;;;25.75;9.02;;;;;;;1.68;74.26;100900.72;10302789;28;20039;-58
2023/12/07 06:54:27;;;;;;;19.25;8.70;;;;;;;1.72;73.50;100913.69;10303349;28;20043;-57
2023/12/07 06:59:28;;;;;;;24.75;9.48;;;;;;;1.73;73.41;100914.53;10305730;28;20572;-58
2023/12/07 07:04:29;;;;;;;25.25;8.02;;;;;;;1.71;73.97;100914.63;10304230;28;20073;-58
2023/12/07 07:09:31;;;;;;;24.35;9.65;;;;;;;1.67;73.76;100920.25;10307623;28;20441;-60
2023/12/07 07:14:32;;;;;;;25.67;9.70;;;;;;;1.79;74.03;100930.00;10301143;28;20041;-60
2023/12/07 07:19:34;;;;;;;30.10;11.50;;;;;;;1.88;73.48;100929.38;10303255;28;20058;-59
2023/12/07 07:24:35;;;;;;;18.98;8.52;;;;;;;1.97;74.06;100925.25;10299067;28;20596;-60
2023/12/07 07:29:37;;;;;;;22.67;9.20;;;;;;;1.97;73.57;100933.19;10303942;28;20410;-59
2023/12/07 07:34:39;;;;;;;22.20;9.25;;;;;;;1.94;74.51;100939.56;10306129;28;20069;-60
2023/12/07 07:39:41;;;;;;;26.55;9.77;;;;;;;1.97;74.28;100928.75;10300271;28;20531;-60
2023/12/07 07:44:42;;;;;;;29.90;9.35;;;;;;;2.06;74.49;100932.56;10304450;28;20406;-60
2023/12/07 07:49:44;;;;;;;33.22;12.73;;;;;;;2.19;74.17;100935.19;10301472;28;20042;-59
2023/12/07 07:54:45;;;;;;;25.77;10.23;;;;;;;2.30;73.64;100937.94;10307304;28;20045;-60
2023/12/07 07:59:46;;;;;;;25.80;10.52;;;;;;;2.37;73.60;100936.56;10302823;28;20046;-60
2023/12/07 08:04:48;;;;;;;32.35;10.50;;;;;;;2.41;73.87;100918.63;10305452;28;20050;-60
2023/12/07 08:09:49;;;;;;;23.67;10.38;;;;;;;2.48;73.81;100919.88;10302503;28;20460;-60
2023/12/07 08:14:51;;;;;;;27.48;10.38;;;;;;;2.43;74.23;100914.06;10302082;28;20061;-60
2023/12/07 08:19:53;;;;;;;34.30;11.95;;;;;;;2.43;73.80;100908.75;10304250;28;20050;-60
2023/12/07 08:24:54;;;;;;;20.92;9.88;;;;;;;2.49;73.59;100894.19;10300216;28;20034;-61
2023/12/07 08:30:09;;;;;;;24.73;9.90;;;;;;;2.54;74.03;100881.44;10299471;28;20142;-61
2023/12/07 08:35:11;;;;;;;24.85;10.00;;;;;;;2.54;73.81;100892.91;10303498;28;20043;-61
2023/12/07 08:40:15;;;;;;;23.25;11.10;;;;;;;2.62;73.62;100886.19;10301856;28;20050;-60
2023/12/07 08:45:17;;;;;;;30.45;10.77;;;;;;;2.67;73.89;100892.03;10302292;28;20046;-62
2023/12/07 08:50:18;;;;;;;26.75;11.27;;;;;;;2.74;74.05;100882.63;10301142;28;20046;-60
2023/12/07 08:55:20;;;;;;;32.90;13.73;;;;;;;2.86;74.32;100904.78;10298967;28;20070;-61
2023/12/07 09:00:24;;;;;;;35.38;14.75;;;;;;;3.11;74.13;100896.69;10303887;28;20049;-61
2023/12/07 09:05:26;;;;;;;32.20;12.30;;;;;;;3.36;74.22;100889.56;10296398;28;20050;-60
2023/12/07 09:10:28;;;;;;;45.33;13.38;;;;;;;3.47;73.78;100896.72;10300274;28;20050;-60
2023/12/07 09:15:30;;;;;;;36.17;12.43;;;;;;;3.44;74.16;100907.59;10297206;28;20082;-60
2023/12/07 09:20:31;;;;;;;32.95;13.00;;;;;;;3.69;73.82;100902.09;10304463;28;20061;-59
2023/12/07 09:25:32;;;;;;;42.10;13.48;;;;;;;3.91;73.58;100908.38;10295449;28;20065;-60
2023/12/07 09:30:34;;;;;;;40.50;13.07;;;;;;;3.90;74.10;100904.88;10302012;28;20557;-59
2023/12/07 09:35:36;;;;;;;36.38;13.35;;;;;;;4.16;73.84;100889.53;10301448;28;20065;-59
2023/12/07 09:40:37;;;;;;;39.42;13.32;;;;;;;4.04;73.79;100911.78;10280572;28;20425;-60
2023/12/07 09:45:39;;;;;;;32.80;11.80;;;;;;;3.89;74.68;100919.16;10296552;28;20125;-60
2023/12/07 09:50:40;;;;;;;38.55;12.13;;;;;;;4.02;74.32;100915.56;10288112;28;20050;-59
2023/12/07 09:55:41;;;;;;;36.53;13.18;;;;;;;4.10;74.78;100913.13;10297546;28;20053;-59
2023/12/07 10:00:43;;;;;;;34.20;11.68;;;;;;;4.36;74.04;100913.72;10296467;28;20054;-60
2023/12/07 10:05:56;;;;;;;35.08;12.80;;;;;;;4.40;73.82;100907.19;10291736;28;20513;-59
2023/12/07 10:11:12;;;;;;;32.75;14.38;;;;;;;4.50;73.69;100894.88;10296283;28;20050;-59
2023/12/07 10:16:16;;;;;;;37.53;15.50;;;;;;;4.52;73.59;100895.59;10292451;28;20063;-59
2023/12/07 10:21:31;;;;;;;75.68;26.08;;;;;;;4.82;72.75;100874.56;10295498;28;20054;-59
2023/12/07 10:26:33;;;;;;;39.53;16.60;;;;;;;5.14;73.05;100864.75;10294182;28;20490;-60
2023/12/07 10:31:37;;;;;;;34.60;14.88;;;;;;;5.35;72.73;100863.91;10300012;28;20513;-59
2023/12/07 10:36:39;;;;;;;35.90;15.10;;;;;;;5.67;72.33;100850.53;10298613;28;20109;-59
2023/12/07 10:41:43;;;;;;;36.15;15.25;;;;;;;5.81;72.61;100840.50;10295087;28;20071;-59
2023/12/07 10:46:45;;;;;;;32.88;15.27;;;;;;;6.10;71.24;100838.84;10292530;28;20065;-59
2023/12/07 10:52:00;;;;;;;32.50;13.98;;;;;;;6.26;71.56;100840.13;10298740;28;20049;-59
2023/12/07 10:57:05;;;;;;;35.17;13.70;;;;;;;6.43;71.05;100839.47;10297892;28;20149;-59
2023/12/07 11:02:10;;;;;;;32.70;14.55;;;;;;;6.50;71.35;100821.94;10305542;28;20046;-60
2023/12/07 11:07:17;;;;;;;32.10;15.38;;;;;;;6.51;71.20;100822.78;10301229;28;20136;-59
2023/12/07 11:12:29;;;;;;;34.10;15.05;;;;;;;6.52;71.07;100819.97;10303843;28;20149;-59
2023/12/07 11:17:47;;;;;;;39.03;15.95;;;;;;;6.48;70.71;100801.69;10300404;28;20046;-59
2023/12/07 11:22:50;;;;;;;38.38;15.55;;;;;;;6.53;70.41;100791.41;10304137;28;20043;-59
2023/12/07 11:28:01;;;;;;;43.58;18.48;;;;;;;6.46;70.75;100784.97;10306774;28;20394;-59
2023/12/07 11:33:07;;;;;;;32.80;14.95;;;;;;;6.41;70.44;100787.19;10306325;28;20066;-60
2023/12/07 11:38:11;;;;;;;31.98;14.23;;;;;;;6.32;70.19;100781.72;10299938;28;20141;-60
2023/12/07 11:43:40;;;;;;;37.25;14.80;;;;;;;6.28;71.53;100771.41;10301387;28;20039;-60
2023/12/07 11:48:49;;;;;;;36.08;14.20;;;;;;;6.30;70.67;100759.66;10306202;28;20417;-60
2023/12/07 11:53:51;;;;;;;38.85;14.65;;;;;;;6.38;70.55;100755.41;10304357;28;20042;-60
2023/12/07 11:58:52;;;;;;;37.17;14.32;;;;;;;6.48;70.52;100748.28;10306103;28;20042;-60
2023/12/07 12:03:54;;;;;;;32.50;15.23;;;;;;;6.59;70.67;100736.59;10302306;28;20049;-59
2023/12/07 12:08:56;;;;;;;34.80;14.25;;;;;;;6.72;69.74;100735.34;10305740;28;20052;-60
2023/12/07 12:13:57;;;;;;;33.67;14.77;;;;;;;6.79;70.28;100718.75;10300848;28;20837;-60
2023/12/07 12:18:59;;;;;;;33.75;14.38;;;;;;;6.83;69.77;100713.00;10300523;28;20056;-59
2023/12/07 12:24:01;;;;;;;36.40;16.02;;;;;;;6.78;70.39;100701.88;10300228;28;20054;-59
2023/12/07 12:29:03;;;;;;;35.42;15.38;;;;;;;6.79;69.67;100697.38;10297596;28;20371;-59
2023/12/07 12:34:12;;;;;;;45.47;16.60;;;;;;;6.79;69.75;100697.38;10302770;28;20053;-59
2023/12/07 12:39:15;;;;;;;50.15;17.40;;;;;;;6.71;69.46;100698.94;10301425;28;20100;-59
2023/12/07 12:44:31;;;;;;;49.13;17.38;;;;;;;6.68;70.33;100695.72;10304658;28;20046;-61
2023/12/07 12:49:43;;;;;;;39.08;15.52;;;;;;;6.55;69.88;100694.16;10302070;28;20046;-61
2023/12/07 12:54:46;;;;;;;46.70;16.20;;;;;;;6.47;69.43;100703.84;10286129;28;20429;-61
2023/12/07 12:59:50;;;;;;;55.15;17.17;;;;;;;6.48;70.18;100695.72;10300106;28;20071;-61
2023/12/07 13:04:52;;;;;;;51.78;16.65;;;;;;;6.52;69.74;100689.09;10299250;28;20046;-63
2023/12/07 13:09:54;;;;;;;40.83;14.73;;;;;;;6.50;69.48;100683.06;10300079;28;20054;-62
2023/12/07 13:14:55;;;;;;;38.53;14.10;;;;;;;6.26;70.63;100677.28;10302177;28;20058;-63
2023/12/07 13:19:59;;;;;;;41.63;14.90;;;;;;;6.12;70.23;100681.22;10302009;28;20100;-61
2023/12/07 13:25:02;;;;;;;36.33;14.38;;;;;;;6.12;70.12;100666.06;10298677;28;20443;-63
2023/12/07 13:30:07;;;;;;;44.15;15.70;;;;;;;6.11;69.64;100664.34;10304034;28;20054;-61
2023/12/07 13:35:08;;;;;;;51.88;17.13;;;;;;;6.14;70.08;100656.09;10298783;28;20046;-62
2023/12/07 13:40:11;;;;;;;44.83;16.05;;;;;;;6.17;69.63;100654.13;10291988;28;20038;-61
2023/12/07 13:45:13;;;;;;;41.60;14.73;;;;;;;6.13;69.40;100657.06;10288872;28;21030;-62
2023/12/07 13:50:15;;;;;;;45.92;15.93;;;;;;;6.00;69.67;100656.47;10304644;28;20047;-63
2023/12/07 13:55:16;;;;;;;34.63;13.68;;;;;;;6.00;69.32;100659.13;10307283;28;20146;-59
2023/12/07 14:00:19;;;;;;;39.88;14.90;;;;;;;5.93;69.73;100652.66;10298007;28;20168;-58
2023/12/07 14:05:21;;;;;;;41.03;14.45;;;;;;;5.97;69.53;100653.25;10291520;28;20061;-59
2023/12/07 14:10:23;;;;;;;37.42;14.55;;;;;;;5.85;70.38;100645.34;10303982;28;20042;-59
2023/12/07 14:15:25;;;;;;;39.72;14.63;;;;;;;5.75;70.58;100632.00;10295697;28;20422;-60
2023/12/07 14:20:43;;;;;;;41.28;14.13;;;;;;;5.86;69.82;100622.16;10296142;28;20494;-59
2023/12/07 14:26:05;;;;;;;44.53;16.08;;;;;;;5.90;70.29;100623.56;10299191;28;20246;-60
2023/12/07 14:31:14;;;;;;;40.30;13.70;;;;;;;5.95;69.90;100616.88;10302235;28;20161;-59
2023/12/07 14:36:16;;;;;;;;;;;;;;;5.96;69.12;100609.72;10306751;28;20065;-62
2023/12/07 14:41:17;;;;;;;38.10;14.45;;;;;;;5.92;69.49;100616.28;10307266;28;20508;-61
2023/12/07 14:46:18;;;;;;;44.53;16.80;;;;;;;5.93;69.61;100599.31;10309917;28;20054;-59
2023/12/07 14:51:21;;;;;;;38.00;15.55;;;;;;;5.88;70.23;100598.88;10307691;28;20053;-59
2023/12/07 14:56:22;;;;;;;41.17;15.80;;;;;;;5.90;70.04;100586.22;10302827;28;20065;-59
2023/12/07 15:01:24;;;;;;;39.03;14.75;;;;;;;5.93;69.58;100581.47;10303767;28;20053;-59
2023/12/07 15:06:26;;;;;;;39.45;17.63;;;;;;;5.93;69.85;100575.28;10304077;28;20053;-60
2023/12/07 15:11:28;;;;;;;33.00;14.27;;;;;;;5.92;69.55;100568.25;10305845;28;20057;-59
2023/12/07 15:16:30;;;;;;;33.35;14.35;;;;;;;5.84;70.24;100579.63;10302709;28;20121;-59
2023/12/07 15:21:32;;;;;;;43.28;16.15;;;;;;;5.86;70.00;100572.31;10305522;28;20047;-60
2023/12/07 15:26:33;;;;;;;34.63;13.43;;;;;;;5.87;70.02;100560.69;10303090;28;20050;-59
2023/12/07 15:31:35;;;;;;;30.15;12.65;;;;;;;5.73;70.47;100547.78;10306515;28;20053;-59
2023/12/07 15:36:36;;;;;;;25.67;11.27;;;;;;;5.70;70.57;100535.53;10307019;28;20049;-60
2023/12/07 15:41:38;;;;;;;31.13;11.90;;;;;;;5.63;70.54;100531.75;10301685;28;20127;-61
2023/12/07 15:46:39;;;;;;;26.17;10.82;;;;;;;5.55;70.13;100523.63;10305820;28;20129;-60
2023/12/07 15:51:41;;;;;;;25.27;10.82;;;;;;;5.43;70.61;100533.56;10304664;28;20049;-60
2023/12/07 15:56:44;;;;;;;19.73;9.35;;;;;;;5.46;70.03;100543.94;10304085;28;20054;-59
2023/12/07 16:01:45;;;;;;;18.63;8.93;;;;;;;5.37;70.24;100550.09;10305354;28;20042;-60
2023/12/07 16:06:47;;;;;;;14.05;7.30;;;;;;;5.36;70.29;100548.41;10302405;28;20057;-59
2023/12/07 16:11:48;;;;;;;16.95;7.20;;;;;;;5.33;70.23;100536.22;10304859;28;20510;-60
2023/12/07 16:16:50;;;;;;;12.98;6.97;;;;;;;5.21;70.76;100544.44;10303955;28;20046;-59
2023/12/07 16:21:52;;;;;;;13.30;6.95;;;;;;;5.10;70.08;100524.94;10287820;28;20043;-60
2023/12/07 16:26:53;;;;;;;11.98;7.40;;;;;;;4.97;70.59;100534.97;10293058;28;20494;-60
2023/12/07 16:31:55;;;;;;;10.98;5.32;;;;;;;4.92;70.74;100531.91;10301621;28;20050;-60
2023/12/07 16:36:56;;;;;;;11.45;5.60;;;;;;;4.93;70.00;100520.25;10299552;28;20039;-60
2023/12/07 16:41:58;;;;;;;10.10;6.32;;;;;;;4.88;70.21;100509.19;10296988;28;20057;-60
2023/12/07 16:47:03;;;;;;;9.98;4.38;;;;;;;4.77;70.69;100500.28;10296302;28;20057;-58
2023/12/07 16:52:05;;;;;;;13.65;6.25;;;;;;;4.73;70.26;100508.69;10299618;28;20354;-57
2023/12/07 16:57:06;;;;;;;9.50;5.63;;;;;;;4.66;70.74;100499.53;10307811;28;20120;-58
2023/12/07 17:02:08;;;;;;;9.60;5.63;;;;;;;4.73;69.96;100498.03;10306137;28;20042;-59
2023/12/07 17:07:10;;;;;;;11.68;5.85;;;;;;;4.71;69.98;100479.53;10289143;28;20038;-58
2023/12/07 17:12:11;;;;;;;14.13;6.65;;;;;;;4.74;69.71;100481.09;10299689;28;20501;-58
2023/12/07 17:17:13;;;;;;;11.68;5.40;;;;;;;4.67;70.16;100477.28;10298298;28;20093;-57
2023/12/07 17:22:14;;;;;;;9.65;4.80;;;;;;;4.51;70.56;100469.78;10301129;28;20080;-58
2023/12/07 17:27:16;;;;;;;13.82;5.60;;;;;;;4.62;70.32;100468.84;10296419;28;20049;-58
2023/12/07 17:32:18;;;;;;;11.75;5.47;;;;;;;4.63;70.22;100467.88;10296642;28;20565;-58
2023/12/07 17:37:19;;;;;;;10.13;5.45;;;;;;;4.59;69.90;100469.13;10299143;28;21609;-58
2023/12/07 17:42:21;;;;;;;11.65;5.28;;;;;;;4.34;70.17;100466.78;10296956;28;20070;-58
2023/12/07 17:47:23;;;;;;;12.23;6.35;;;;;;;4.17;70.56;100465.56;10300937;28;20050;-58
2023/12/07 17:52:25;;;;;;;12.98;6.95;;;;;;;4.04;70.40;100475.56;10291854;28;20880;-58
2023/12/07 17:57:26;;;;;;;11.93;6.78;;;;;;;3.94;70.04;100480.81;10299059;28;20050;-58
2023/12/07 18:02:28;;;;;;;12.20;6.45;;;;;;;3.88;70.25;100460.06;10302510;28;20053;-58
2023/12/07 18:07:29;;;;;;;12.00;5.93;;;;;;;3.82;69.82;100460.59;10302772;28;20054;-58
2023/12/07 18:12:31;;;;;;;15.27;6.88;;;;;;;3.84;70.36;100468.44;10296854;28;20057;-58
2023/12/07 18:17:32;;;;;;;15.63;7.80;;;;;;;3.89;69.94;100463.56;10303735;28;20682;-58
2023/12/07 18:22:34;;;;;;;20.05;9.18;;;;;;;3.91;69.91;100456.31;10305908;28;20081;-57
2023/12/07 18:27:35;;;;;;;84.53;26.35;;;;;;;3.97;70.52;100456.63;10305213;28;20054;-58
2023/12/07 18:32:37;;;;;;;23.58;11.82;;;;;;;3.93;69.67;100446.38;10309958;28;20115;-58
2023/12/07 18:37:38;;;;;;;14.77;8.77;;;;;;;3.82;70.10;100436.66;10289952;28;20041;-57
2023/12/07 18:42:41;;;;;;;17.85;8.25;;;;;;;3.66;70.64;100429.16;10286145;28;20077;-56
2023/12/07 18:47:43;;;;;;;14.48;7.75;;;;;;;3.49;70.48;100419.09;10308190;28;20149;-56
2023/12/07 18:52:45;;;;;;;11.77;6.90;;;;;;;3.35;70.65;100417.59;10306443;28;20070;-56
2023/12/07 18:57:46;;;;;;;12.93;6.15;;;;;;;3.20;70.39;100419.72;10299827;28;20042;-56
2023/12/07 19:02:48;;;;;;;11.98;5.95;;;;;;;3.05;70.53;100413.00;10293416;28;20454;-56
2023/12/07 19:07:49;;;;;;;11.85;6.55;;;;;;;2.93;70.46;100412.19;10300030;28;20051;-56
2023/12/07 19:12:51;;;;;;;14.02;5.90;;;;;;;2.84;70.92;100412.94;10288247;28;20046;-57
2023/12/07 19:17:52;;;;;;;13.80;6.32;;;;;;;2.75;70.90;100401.25;10301953;28;20050;-56
2023/12/07 19:22:54;;;;;;;16.40;5.57;;;;;;;2.61;71.04;100405.03;10307374;28;20055;-56
2023/12/07 19:27:56;;;;;;;15.57;6.45;;;;;;;2.55;70.91;100405.53;10294102;28;20130;-56
2023/12/07 19:33:02;;;;;;;13.43;6.93;;;;;;;2.50;70.70;100399.72;10314493;28;20889;-57
2023/12/07 19:38:04;;;;;;;21.27;8.23;;;;;;;2.45;70.68;100396.59;10282141;28;20034;-56
2023/12/07 19:43:06;;;;;;;16.23;7.75;;;;;;;2.38;70.81;100388.28;10314583;28;20061;-58
2023/12/07 19:48:08;;;;;;;19.00;8.02;;;;;;;2.32;71.25;100394.91;10316251;28;20055;-58
2023/12/07 19:53:10;;;;;;;17.77;8.63;;;;;;;2.27;71.08;100375.91;10317729;28;20042;-58
2023/12/07 19:58:12;;;;;;;20.58;8.73;;;;;;;2.23;70.83;100377.06;10319212;28;20109;-57
2023/12/07 20:03:13;;;;;;;27.17;9.75;;;;;;;2.22;71.14;100354.19;10314883;28;20053;-57
2023/12/07 20:08:15;;;;;;;23.42;9.77;;;;;;;2.17;71.18;100349.25;10300652;28;20498;-59
2023/12/07 20:13:16;;;;;;;19.65;8.23;;;;;;;2.11;70.74;100332.97;10317907;28;20552;-58
2023/12/07 20:18:18;;;;;;;20.40;9.05;;;;;;;2.10;71.22;100312.75;10317940;28;20061;-58
2023/12/07 20:23:20;;;;;;;22.55;9.65;;;;;;;2.08;71.12;100298.78;10314820;28;20057;-58
2023/12/07 20:28:22;;;;;;;21.23;9.18;;;;;;;2.11;71.06;100293.22;10296555;28;20042;-58
2023/12/07 20:33:23;;;;;;;25.40;9.93;;;;;;;2.07;70.94;100292.59;10293321;28;20053;-56
2023/12/07 20:38:25;;;;;;;20.92;9.95;;;;;;;2.07;71.40;100283.81;10288910;28;20157;-58
2023/12/07 20:43:26;;;;;;;23.38;8.50;;;;;;;2.10;71.46;100278.28;10294438;28;20062;-56
2023/12/07 20:48:28;;;;;;;25.52;8.88;;;;;;;2.16;71.60;100260.06;10295124;28;20042;-55
2023/12/07 20:53:29;;;;;;;24.80;10.82;;;;;;;2.25;71.43;100231.09;10292999;28;20077;-57
2023/12/07 20:58:32;;;;;;;28.42;9.40;;;;;;;2.33;71.11;100212.75;10274050;28;20093;-56
2023/12/07 21:03:34;;;;;;;29.98;11.27;;;;;;;2.41;71.38;100198.84;10296521;28;20774;-55
2023/12/07 21:08:38;;;;;;;24.45;9.80;;;;;;;2.47;71.46;100185.94;10294000;28;20149;-56
2023/12/07 21:13:39;;;;;;;27.45;9.77;;;;;;;2.54;71.38;100192.41;10298270;28;20051;-57
2023/12/07 21:18:41;;;;;;;25.27;10.07;;;;;;;2.67;71.66;100191.41;10294584;28;20047;-57
2023/12/07 21:23:42;;;;;;;23.85;10.57;;;;;;;2.79;71.62;100206.28;10290774;28;20042;-56
2023/12/07 21:28:44;;;;;;;25.20;9.82;;;;;;;2.87;71.39;100193.19;10295854;28;20117;-57
2023/12/07 21:33:45;;;;;;;22.48;8.88;;;;;;;2.95;71.65;100168.66;10292552;28;20046;-57
2023/12/07 21:38:47;;;;;;;31.48;11.98;;;;;;;2.96;71.81;100154.38;10291676;28;20054;-56
2023/12/07 21:43:49;;;;;;;26.00;10.60;;;;;;;2.59;72.84;100165.50;10288101;28;20045;-57
2023/12/07 21:48:50;;;;;;;25.85;10.88;;;;;;;2.68;72.36;100140.00;10297241;28;20042;-57
2023/12/07 21:53:52;;;;;;;22.95;10.98;;;;;;;2.83;72.09;100136.03;10291659;28;20046;-56
2023/12/07 21:58:53;;;;;;;26.10;10.20;;;;;;;2.86;72.30;100119.81;10295228;28;20134;-58
2023/12/07 22:03:55;;;;;;;23.25;10.32;;;;;;;2.83;72.38;100127.25;10293959;28;20042;-58
2023/12/07 22:08:56;;;;;;;25.42;10.75;;;;;;;2.78;72.24;100122.31;10286665;28;20051;-57
2023/12/07 22:13:58;;;;;;;26.27;9.48;;;;;;;2.65;72.89;100125.19;10295262;28;20051;-57
2023/12/07 22:18:59;;;;;;;22.15;8.77;;;;;;;2.75;71.99;100102.19;10296474;28;20053;-57
2023/12/07 22:24:01;;;;;;;30.63;10.98;;;;;;;2.93;71.57;100096.28;10294169;28;20051;-57
2023/12/07 22:29:02;;;;;;;22.70;10.10;;;;;;;2.84;71.73;100094.41;10294208;28;20044;-57
2023/12/07 22:34:03;;;;;;;25.05;11.40;;;;;;;2.77;72.10;100091.44;10294989;28;20054;-57
2023/12/07 22:39:05;;;;;;;22.70;9.68;;;;;;;2.85;72.08;100080.16;10292727;28;20160;-57
2023/12/07 22:44:07;;;;;;;23.27;9.52;;;;;;;2.85;72.00;100086.31;10294015;28;20487;-58
2023/12/07 22:49:08;;;;;;;20.90;10.25;;;;;;;2.96;71.91;100077.41;10299087;28;20061;-57
2023/12/07 22:54:10;;;;;;;24.75;9.93;;;;;;;3.03;71.58;100073.25;10301707;28;20039;-57
2023/12/07 22:59:11;;;;;;;26.02;9.70;;;;;;;3.12;71.57;100060.97;10300102;28;20050;-60
2023/12/07 23:04:13;;;;;;;27.30;10.80;;;;;;;3.13;71.24;100060.84;10299726;28;20047;-57